createdAt,value
2023-03-21T00:05:59.360Z,22.10
2023-03-21T00:13:01.143Z,19.20
2023-03-21T00:19:14.911Z,19.20
2023-03-21T00:26:19.271Z,18.80
2023-03-21T00:33:23.012Z,18.20
2023-03-21T00:39:39.181Z,20.30
2023-03-21T00:46:45.150Z,17.90
2023-03-21T00:53:23.951Z,21.20
2023-03-21T01:00:18.671Z,19.90
2023-03-21T01:07:05.759Z,20.20
2023-03-21T01:13:22.359Z,20.20
2023-03-21T01:20:20.460Z,19.60
2023-03-21T01:27:18.759Z,22.10
2023-03-21T01:34:04.988Z,20.30
2023-03-21T01:41:17.166Z,21.30
2023-03-21T01:48:15.561Z,20.60
2023-03-21T01:55:13.666Z,21.60
2023-03-21T02:02:30.259Z,20.30
2023-03-21T02:09:49.975Z,19.70
2023-03-21T02:16:50.362Z,24.40
2023-03-21T02:23:58.809Z,32.10
2023-03-21T02:31:17.995Z,30.40
2023-03-21T02:38:38.807Z,31.10
2023-03-21T02:45:56.967Z,29.70
2023-03-21T02:53:09.525Z,29.40
2023-03-21T03:00:16.681Z,26.10
2023-03-21T03:07:20.511Z,28.50
2023-03-21T03:21:58.721Z,25.00
2023-03-21T03:29:01.654Z,29.40
2023-03-21T03:36:07.041Z,29.10
2023-03-21T03:43:19.297Z,31.00
2023-03-21T03:50:10.340Z,28.80
2023-03-21T03:57:13.149Z,24.50
2023-03-21T04:04:19.340Z,21.80
2023-03-21T04:10:47.619Z,25.90
2023-03-21T04:17:32.806Z,23.60
2023-03-21T04:23:54.260Z,22.40
2023-03-21T04:31:00.752Z,20.30
2023-03-21T04:38:06.074Z,19.50
2023-03-21T04:44:59.055Z,17.60
2023-03-21T04:52:21.030Z,16.40
2023-03-21T04:59:09.807Z,19.70
2023-03-21T05:06:11.454Z,24.60
2023-03-21T05:13:20.252Z,25.10
2023-03-21T05:20:25.369Z,22.30
2023-03-21T05:26:55.271Z,16.80
2023-03-21T05:33:58.281Z,18.20
2023-03-21T05:40:53.392Z,23.20
2023-03-21T05:47:52.912Z,24.40
2023-03-21T05:54:06.717Z,28.00
2023-03-21T06:00:24.276Z,27.40
2023-03-21T06:06:34.874Z,28.00
2023-03-21T06:12:21.853Z,25.40
2023-03-21T06:18:44.789Z,23.60
2023-03-21T06:24:40.354Z,21.30
2023-03-21T06:31:05.805Z,21.20
2023-03-21T06:37:59.768Z,19.50
2023-03-21T06:44:19.028Z,22.40
2023-03-21T06:50:06.936Z,20.80
2023-03-21T06:55:28.193Z,16.90
2023-03-21T07:01:37.878Z,17.40
2023-03-21T07:07:51.469Z,18.20
2023-03-21T07:13:56.393Z,17.00
2023-03-21T07:20:10.045Z,17.70
2023-03-21T07:26:54.648Z,17.80
2023-03-21T07:33:13.591Z,18.10
2023-03-21T07:39:25.658Z,15.30
2023-03-21T07:45:35.650Z,16.50
2023-03-21T07:52:05.040Z,19.20
2023-03-21T07:58:24.108Z,17.20
2023-03-21T08:04:13.722Z,18.20
2023-03-21T08:10:15.619Z,19.30
2023-03-21T08:16:47.277Z,19.90
2023-03-21T08:22:59.354Z,34.10
2023-03-21T08:29:05.659Z,24.00
2023-03-21T08:34:42.456Z,22.50
2023-03-21T08:40:09.380Z,21.50
2023-03-21T08:46:03.525Z,25.00
2023-03-21T08:51:11.788Z,25.20
2023-03-21T08:56:31.894Z,27.90
2023-03-21T09:03:03.782Z,23.90
2023-03-21T09:09:14.067Z,27.20
2023-03-21T09:15:39.158Z,22.30
2023-03-21T09:21:46.538Z,23.80
2023-03-21T09:27:10.001Z,24.40
2023-03-21T09:32:54.223Z,22.50
2023-03-21T09:38:15.180Z,21.00
2023-03-21T09:44:00.836Z,21.90
2023-03-21T09:49:51.860Z,22.30
2023-03-21T09:55:20.155Z,24.20
2023-03-21T10:01:47.648Z,23.90
2023-03-21T10:07:58.799Z,23.40
2023-03-21T10:13:32.108Z,23.80
2023-03-21T10:19:24.022Z,24.60
2023-03-21T10:25:05.618Z,26.90
2023-03-21T10:30:51.989Z,28.70
2023-03-21T10:36:48.204Z,28.50
2023-03-21T10:42:36.099Z,26.90
2023-03-21T10:47:57.785Z,27.00
2023-03-21T10:53:05.783Z,27.70
2023-03-21T10:58:19.806Z,24.00
2023-03-21T11:03:35.722Z,22.50
2023-03-21T11:08:56.064Z,23.80
2023-03-21T11:14:55.652Z,26.70
2023-03-21T11:20:19.137Z,25.40
2023-03-21T11:26:04.050Z,27.10
2023-03-21T11:31:12.997Z,26.80
2023-03-21T11:36:40.328Z,26.80
2023-03-21T11:42:07.392Z,26.90
2023-03-21T11:47:46.586Z,25.20
2023-03-21T11:53:49.201Z,25.80
2023-03-21T11:59:27.848Z,23.50
2023-03-21T12:05:22.446Z,25.00
2023-03-21T12:10:27.805Z,24.10
2023-03-21T12:16:43.132Z,23.10
2023-03-21T12:22:15.061Z,24.70
2023-03-21T12:28:07.463Z,21.60
2023-03-21T12:33:52.303Z,21.50
2023-03-21T12:39:54.070Z,23.00
2023-03-21T12:45:45.759Z,21.50
2023-03-21T12:51:04.279Z,20.50
2023-03-21T12:56:29.571Z,20.20
2023-03-21T13:02:39.791Z,20.50
2023-03-21T13:08:27.024Z,19.50
2023-03-21T13:14:37.533Z,20.20
2023-03-21T13:20:36.287Z,20.80
2023-03-21T13:25:50.091Z,17.70
2023-03-21T13:31:15.930Z,19.40
2023-03-21T13:36:39.433Z,19.40
2023-03-21T13:42:31.345Z,17.70
2023-03-21T13:48:23.561Z,18.00
2023-03-21T13:54:23.580Z,15.70
2023-03-21T14:00:36.533Z,14.70
2023-03-21T14:06:00.007Z,13.60
2023-03-21T14:11:54.723Z,14.00
2023-03-21T14:17:36.479Z,14.70
2023-03-21T14:23:01.531Z,13.50
2023-03-21T14:28:46.428Z,15.30
2023-03-21T14:34:20.669Z,14.50
2023-03-21T14:39:41.819Z,15.10
2023-03-21T14:45:42.968Z,14.00
2023-03-21T14:51:06.821Z,17.00
2023-03-21T14:56:47.572Z,16.10
2023-03-21T15:02:38.912Z,15.90
2023-03-21T15:08:18.222Z,19.50
2023-03-21T15:13:35.958Z,18.10
2023-03-21T15:18:52.940Z,22.40
2023-03-21T15:24:02.289Z,23.60
2023-03-21T15:29:08.156Z,19.90
2023-03-21T15:34:48.697Z,20.20
2023-03-21T15:40:42.989Z,23.00
2023-03-21T15:45:55.381Z,21.50
2023-03-21T15:51:31.120Z,23.20
2023-03-21T15:56:41.294Z,23.30
2023-03-21T16:02:15.702Z,26.30
2023-03-21T16:07:48.128Z,28.50
2023-03-21T16:13:11.745Z,31.00
2023-03-21T16:18:17.582Z,32.60
2023-03-21T16:23:57.278Z,31.10
2023-03-21T16:29:03.666Z,32.00
2023-03-21T16:34:35.457Z,32.00
2023-03-21T16:40:40.751Z,33.70
2023-03-21T16:46:06.493Z,31.70
2023-03-21T16:51:57.729Z,31.50
2023-03-21T16:57:49.712Z,32.00
2023-03-21T17:03:16.550Z,31.30
2023-03-21T17:09:13.818Z,31.30
2023-03-21T17:15:27.621Z,32.80
2023-03-21T17:20:55.584Z,38.30
2023-03-21T17:26:28.097Z,34.80
2023-03-21T17:32:19.599Z,35.40
2023-03-21T17:37:39.796Z,34.70
2023-03-21T17:48:44.224Z,34.20
2023-03-21T17:55:03.577Z,33.30
2023-03-21T18:00:43.362Z,33.50
2023-03-21T18:06:43.872Z,36.50
2023-03-21T18:13:17.351Z,65.40
2023-03-21T18:18:53.938Z,53.10
2023-03-21T18:24:22.827Z,59.90
2023-03-21T18:30:47.693Z,59.30
2023-03-21T18:36:27.795Z,55.70
2023-03-21T18:41:33.425Z,54.50
2023-03-21T18:47:27.098Z,55.80
2023-03-21T18:54:04.046Z,46.10
2023-03-21T19:00:54.136Z,50.30
2023-03-21T19:06:17.658Z,48.50
2023-03-21T19:11:52.242Z,42.40
2023-03-21T19:17:53.518Z,46.20
2023-03-21T19:22:28.941Z,50.10
2023-03-21T19:27:47.089Z,52.00
2023-03-21T19:32:52.757Z,50.10
2023-03-21T19:39:06.192Z,51.70
2023-03-21T19:44:32.789Z,51.50
2023-03-21T19:50:17.397Z,49.40
2023-03-21T19:55:38.014Z,46.40
2023-03-21T20:02:31.221Z,56.90
2023-03-21T20:07:55.369Z,68.20
2023-03-21T20:13:18.234Z,72.50
2023-03-21T20:19:26.256Z,73.60
2023-03-21T20:32:01.004Z,62.30
2023-03-21T20:37:49.339Z,81.30
2023-03-21T20:44:06.512Z,66.50
2023-03-21T20:49:46.050Z,63.00
2023-03-21T20:56:09.876Z,57.10
2023-03-21T21:02:42.895Z,51.30
2023-03-21T21:08:42.420Z,58.70
2023-03-21T21:15:04.873Z,91.60
2023-03-21T21:21:16.991Z,88.60
2023-03-21T21:27:21.047Z,85.60
2023-03-21T21:33:06.036Z,81.50
2023-03-21T21:39:36.934Z,77.90
2023-03-21T21:45:52.438Z,78.20
2023-03-21T21:51:37.743Z,74.70
2023-03-21T21:57:46.115Z,64.40
2023-03-21T22:03:19.414Z,54.80
2023-03-21T22:09:27.614Z,60.70
2023-03-21T22:16:00.340Z,53.80
2023-03-21T22:22:08.522Z,51.80
2023-03-21T22:28:00.181Z,55.40
2023-03-21T22:33:48.297Z,57.40
2023-03-21T22:39:47.599Z,55.70
2023-03-21T22:45:39.726Z,57.60
2023-03-21T22:51:09.848Z,58.10
2023-03-21T22:56:50.225Z,60.10
2023-03-21T23:02:30.435Z,59.80
2023-03-21T23:08:17.818Z,57.10
2023-03-21T23:14:17.848Z,58.30
2023-03-21T23:21:00.992Z,62.30
2023-03-21T23:28:06.563Z,60.70
2023-03-21T23:34:44.036Z,60.00
2023-03-21T23:41:14.143Z,63.90
2023-03-21T23:47:14.418Z,66.40
2023-03-21T23:53:47.626Z,70.20
